Latest Weather Observations for Mount Crawford

IDS60801

Issued at 12:01 pm CDT Wednesday 18 January 2017 (issued every 30 minutes, with the page automatically refreshed every 10 minutes)

About weather observations | Map of weather stations | Latest weather observations for SA | Other Formats
Station Details ID: 023878 Name: MOUNT CRAWFORD AWS Lat: -34.73 Lon: 138.93 Height: 525.0 m
Data from the previous 72 hours. | See also: Recent months at Mount Crawford
Date/Time
CDT
Temp
°C
App
Temp
°C
Dew
Point
°C
Rel
Hum
%
Delta-T
°C
Wind Press
QNH
hPa
Press
MSL
hPa
Rain since
9am
mm
Dir  Spd
km/h
Gust
km/h
Spd
kts
Gust
kts
18/12:00pm 17.7 11.7 10.1 61 4.1 ESE 32 43 17 23 1015.6 1013.3 -
18/11:30am 17.0 11.4 10.1 64 3.7 ESE 30 44 16 24 1015.7 1013.4 0.0
18/11:00am 16.8 10.7 9.7 63 3.8 SE 32 44 17 24 1015.9 1013.6 0.0
18/10:30am 18.4 12.5 10.5 60 4.3 ESE 32 46 17 25 1015.9 1013.6 0.0
18/10:00am 16.5 11.1 10.8 69 3.1 SE 30 44 16 24 1016.0 1013.7 0.0
18/09:30am 14.3 8.7 13.2 93 0.6 SE 35 50 19 27 1016.1 1013.9 0.0
18/09:00am 13.2 8.1 13.2 100 0.0 SE 32 46 17 25 1016.0 1013.7 0.0
18/08:30am 13.2 9.6 13.2 100 0.0 SE 24 37 13 20 1016.0 1013.7 0.0
18/08:00am 13.4 9.2 13.4 100 0.0 SE 28 41 15 22 1015.6 1013.3 0.0
18/07:30am 13.8 10.4 13.8 100 0.0 SE 24 33 13 18 1015.3 1013.0 0.0
18/07:00am 14.0 10.7 14.0 100 0.0 SE 24 37 13 20 1014.5 1012.3 0.0
18/06:30am 13.9 11.0 13.9 100 0.0 SE 22 35 12 19 1014.0 1011.7 0.0
18/06:00am 13.9 9.1 13.9 100 0.0 SE 32 43 17 23 1013.2 1010.9 0.0
18/05:30am 13.9 8.9 13.9 100 0.0 ESE 33 46 18 25 1012.0 1009.7 0.0
18/05:00am 13.9 8.9 13.9 100 0.0 ESE 33 46 18 25 1011.5 1009.2 0.0
18/04:30am 14.1 9.7 14.1 100 0.0 ESE 30 39 16 21 1011.3 1009.0 0.0
18/04:00am 14.2 9.3 14.2 100 0.0 SE 33 44 18 24 1010.9 1008.6 0.0
18/03:30am 14.4 9.7 14.4 100 0.0 SE 32 43 17 23 1010.9 1008.6 0.0
18/03:00am 14.7 10.5 14.7 100 0.0 SE 30 39 16 21 1011.6 1009.3 0.0
18/02:30am 14.6 9.7 14.3 98 0.2 SE 33 48 18 26 1011.6 1009.3 0.0
18/02:00am 15.0 9.9 13.7 92 0.7 ESE 33 43 18 23 1011.3 1009.0 0.0
18/01:30am 15.4 10.9 13.9 91 0.9 SE 30 41 16 22 1011.6 1009.3 0.0
18/01:00am 15.6 10.5 13.6 88 1.2 SE 33 50 18 27 1011.6 1009.3 0.0
18/12:30am 16.1 9.0 13.4 84 1.6 SSE 43 59 23 32 1011.6 1009.3 0.0
18/12:01am 16.2 9.8 13.3 83 1.7 SSE 39 59 21 32 1011.7 1009.4 0.0
18/12:00am 16.1 9.8 13.4 84 1.6 SSE 39 54 21 29 1011.7 1009.4 0.0
 
Date/Time
CDT
Temp
°C
App
Temp
°C
Dew
Point
°C
Rel
Hum
%
Delta-T
°C
Wind Press
QNH
hPa
Press
MSL
hPa
Rain since
9am
mm
Dir  Spd
km/h
Gust
km/h
Spd
kts
Gust
kts
17/11:30pm 15.6 9.2 14.3 92 0.8 SSE 41 54 22 29 1011.8 1009.5 0.0
17/11:17pm 16.2 9.8 13.3 83 1.7 SSE 39 57 21 31 1011.9 1009.6 0.0
17/11:00pm 16.6 9.7 12.9 79 2.1 SSE 41 54 22 29 1012.0 1009.7 0.0
17/10:30pm 16.3 9.8 13.0 81 1.9 SSE 39 61 21 33 1012.2 1009.9 0.0
17/10:02pm 17.0 9.7 12.9 77 2.3 SSE 43 61 23 33 1011.9 1009.6 0.0
17/10:00pm 17.1 9.9 13.0 77 2.3 SSE 43 59 23 32 1012.0 1009.7 0.0
17/09:30pm 17.7 11.1 13.6 77 2.4 SSE 41 61 22 33 1011.6 1009.3 0.0
17/09:06pm 18.9 12.2 12.4 66 3.7 S 39 57 21 31 1010.9 1008.6 0.0
17/09:00pm 19.3 12.2 12.3 64 4.0 S 41 57 22 31 1010.8 1008.5 0.0
17/08:46pm 21.1 15.6 12.5 58 5.0 S 33 54 18 29 1010.8 1008.5 0.0
17/08:30pm 23.7 18.8 12.7 50 6.5 S 30 43 16 23 1010.5 1008.2 0.0
17/08:28pm 24.1 19.2 12.4 48 6.9 S 30 43 16 23 1010.5 1008.2 0.0
17/08:00pm 29.4 22.2 1.0 16 14.1 SSW 28 37 15 20 1009.9 1007.6 0.0
17/07:30pm 32.8 28.7 4.6 17 15.2 SW 15 22 8 12 1009.4 1007.1 0.0
17/07:00pm 34.1 28.6 -1.8 10 17.5 WSW 17 24 9 13 1009.1 1006.7 0.0
17/06:30pm 35.0 29.3 -1.1 10 18.0 W 19 28 10 15 1008.8 1006.5 0.0
17/06:00pm 35.6 29.1 -2.1 9 18.5 W 22 33 12 18 1008.7 1006.4 0.0
17/05:30pm 35.5 28.3 -2.2 9 18.5 W 26 44 14 24 1008.5 1006.2 0.0
17/05:00pm 36.1 29.1 -3.3 8 19.0 W 24 41 13 22 1008.6 1006.3 0.0
17/04:30pm 36.4 29.6 -1.5 9 18.9 W 24 39 13 21 1008.8 1006.5 0.0
17/04:00pm 36.3 29.3 -3.2 8 19.1 W 24 35 13 19 1008.9 1006.6 0.0
17/03:30pm 36.7 30.4 -1.3 9 19.1 WNW 22 39 12 21 1009.1 1006.7 0.0
17/03:00pm 35.8 28.0 -3.5 8 18.9 WNW 28 44 15 24 1009.3 1006.9 0.0
17/02:31pm 36.0 28.2 -3.4 8 19.0 W 28 50 15 27 1009.4 1007.1 0.0
17/02:30pm 36.2 28.8 -3.3 8 19.1 W 26 50 14 27 1009.4 1007.1 0.0
17/02:08pm 36.2 28.1 -3.3 8 19.1 W 30 48 16 26 1009.7 1007.4 0.0
17/02:00pm 35.9 27.2 -5.2 7 19.2 W 32 44 17 24 1009.6 1007.3 0.0
17/01:43pm 35.6 27.1 -3.7 8 18.8 W 32 50 17 27 1009.7 1007.4 0.0
17/01:30pm 36.0 29.0 -0.4 10 18.4 WNW 26 39 14 21 1010.0 1007.7 0.0
17/01:00pm 35.4 28.0 -3.8 8 18.7 WNW 26 39 14 21 1010.2 1007.9 0.0
17/12:34pm 35.0 26.4 -4.1 8 18.5 WNW 32 50 17 27 1010.5 1008.2 0.0
17/12:30pm 34.7 25.7 -2.8 9 18.1 WNW 35 50 19 27 1010.5 1008.2 0.0
17/12:19pm 35.3 27.7 -2.3 9 18.4 WNW 28 46 15 25 1010.7 1008.4 0.0
17/12:00pm 34.6 26.5 -2.9 9 18.1 WNW 30 44 16 24 1010.7 1008.4 0.0
17/11:49am 34.3 26.6 -3.1 9 17.9 WNW 28 46 15 25 1010.7 1008.4 0.0
17/11:30am 34.5 27.6 -2.9 9 18.0 NW 24 39 13 21 1010.9 1008.6 0.0
17/11:00am 33.8 27.0 -2.0 10 17.4 NW 24 39 13 21 1011.1 1008.8 0.0
17/10:30am 33.1 27.8 4.8 17 15.3 NNW 22 32 12 17 1011.2 1008.9 0.0
17/10:00am 31.6 25.6 3.6 17 14.7 NNW 24 33 13 18 1011.2 1008.9 0.0
17/09:30am 31.1 26.0 3.2 17 14.5 NNW 19 28 10 15 1011.2 1008.9 0.0
17/09:00am 29.8 24.3 2.1 17 14.1 NNW 20 28 11 15 1011.3 1009.0 0.0
17/08:30am 29.1 23.4 0.7 16 14.0 NNW 20 28 11 15 1011.2 1008.9 0.0
17/08:00am 28.1 22.1 0.8 17 13.4 NNW 22 30 12 16 1011.1 1008.8 0.0
17/07:30am 27.5 21.3 -0.5 16 13.4 NNW 22 30 12 16 1011.1 1008.8 0.0
17/07:00am 27.2 20.5 -0.8 16 13.3 N 24 33 13 18 1010.8 1008.5 0.0
17/06:30am 27.4 21.0 -1.5 15 13.6 N 22 30 12 16 1010.6 1008.3 0.0
17/06:00am 26.6 20.6 -1.3 16 13.1 NNE 20 26 11 14 1010.4 1008.1 0.0
17/05:30am 26.9 21.1 -0.2 17 13.0 NNE 20 28 11 15 1010.4 1008.1 0.0
17/05:00am 25.8 20.7 3.1 23 11.4 NNE 19 24 10 13 1010.3 1008.0 0.0
17/04:30am 24.4 20.0 4.7 28 10.1 NE 17 20 9 11 1010.3 1008.0 0.0
17/04:00am 24.4 19.5 5.2 29 9.9 ENE 20 24 11 13 1010.2 1007.9 0.0
17/03:30am 25.1 20.7 4.8 27 10.5 ENE 17 19 9 10 1010.4 1008.1 0.0
17/03:00am 25.6 20.6 4.7 26 10.8 ENE 20 22 11 12 1010.6 1008.3 0.0
17/02:30am 25.4 20.5 5.1 27 10.6 ENE 20 24 11 13 1010.9 1008.6 0.0
17/02:00am 25.5 20.4 4.0 25 11.0 ENE 20 24 11 13 1011.2 1008.9 0.0
17/01:30am 25.4 20.6 4.5 26 10.8 ENE 19 20 10 11 1011.5 1009.2 0.0
17/01:00am 25.4 21.0 4.5 26 10.7 E 17 20 9 11 1011.7 1009.4 0.0
17/12:30am 25.2 20.9 5.4 28 10.3 E 17 19 9 10 1012.0 1009.7 0.0
17/12:00am 25.7 21.6 4.2 25 11.0 E 15 19 8 10 1012.2 1009.9 0.0
 
Date/Time
CDT
Temp
°C
App
Temp
°C
Dew
Point
°C
Rel
Hum
%
Delta-T
°C
Wind Press
QNH
hPa
Press
MSL
hPa
Rain since
9am
mm
Dir  Spd
km/h
Gust
km/h
Spd
kts
Gust
kts
16/11:30pm 26.2 22.5 4.6 25 11.2 E 13 15 7 8 1012.4 1010.1 0.0
16/11:00pm 24.4 20.1 5.2 29 9.9 ESE 17 19 9 10 1012.5 1010.2 0.0
16/10:30pm 25.5 21.3 4.0 25 11.0 ESE 15 17 8 9 1012.5 1010.2 0.0
16/10:00pm 24.8 20.8 5.1 28 10.2 ESE 15 17 8 9 1012.6 1010.3 0.0
16/09:30pm 25.1 21.9 5.3 28 10.3 ESE 11 13 6 7 1012.4 1010.1 0.0
16/09:00pm 26.9 23.3 2.7 21 12.2 SSW 11 13 6 7 1012.2 1009.9 0.0
16/08:30pm 27.3 23.1 3.7 22 12.1 WSW 15 17 8 9 1012.2 1009.9 0.0
16/08:00pm 28.7 25.1 4.9 22 12.6 WSW 13 19 7 10 1012.2 1009.9 0.0
16/07:30pm 29.9 26.6 4.5 20 13.4 SW 11 15 6 8 1012.1 1009.8 0.0
16/07:00pm 30.9 27.7 5.3 20 13.8 WSW 11 17 6 9 1012.1 1009.8 0.0
16/06:30pm 31.3 28.1 4.9 19 14.2 WSW 11 19 6 10 1012.0 1009.7 0.0
16/06:00pm 31.2 27.6 4.9 19 14.1 WSW 13 20 7 11 1012.1 1009.8 0.0
16/05:30pm 31.2 27.4 4.1 18 14.3 WSW 13 20 7 11 1012.2 1009.9 0.0
16/05:00pm 31.4 27.4 5.0 19 14.2 W 15 22 8 12 1012.6 1010.3 0.0
16/04:30pm 31.3 26.8 4.2 18 14.4 W 17 26 9 14 1012.8 1010.6 0.0
16/04:00pm 31.8 27.6 3.8 17 14.8 W 15 24 8 13 1012.8 1010.6 0.0
16/03:30pm 30.8 26.2 3.8 18 14.2 WSW 17 26 9 14 1012.9 1010.7 0.0
16/03:00pm 31.0 26.3 3.1 17 14.5 W 17 32 9 17 1013.2 1010.9 0.0
16/02:30pm 30.2 25.8 4.8 20 13.5 W 17 26 9 14 1013.5 1011.2 0.0
16/02:00pm 30.0 25.9 6.0 22 13.0 WNW 17 24 9 13 1013.8 1011.5 0.0
16/01:30pm 29.8 25.1 5.1 21 13.2 WNW 19 28 10 15 1014.0 1011.7 0.0
16/01:00pm 28.7 23.5 3.5 20 13.0 NW 20 30 11 16 1014.2 1011.9 0.0
16/12:30pm 28.5 23.2 6.6 25 11.9 NW 24 33 13 18 1014.3 1012.0 0.0
16/12:00pm 28.6 23.7 6.7 25 11.9 NW 22 33 12 18 1014.4 1012.2 0.0
16/11:30am 28.0 23.5 6.2 25 11.7 NNW 19 28 10 15 1014.6 1012.4 0.0
16/11:00am 26.7 22.6 7.7 30 10.4 NNW 19 28 10 15 1014.9 1012.7 0.0
16/10:30am 25.8 21.4 7.4 31 10.0 N 20 28 11 15 1015.2 1012.9 0.0
16/10:00am 25.7 20.3 6.3 29 10.3 N 24 35 13 19 1015.3 1013.0 0.0
16/09:30am 25.0 20.1 6.7 31 9.8 N 22 30 12 16 1015.4 1013.1 0.0
16/09:00am 22.9 19.5 9.0 41 7.6 NNE 17 22 9 12 1015.5 1013.2 0.0
16/08:30am 21.3 17.6 9.5 47 6.5 NE 19 26 10 14 1015.4 1013.1 0.0
16/08:00am 19.7 15.0 7.8 46 6.3 NE 22 30 12 16 1015.3 1013.0 0.0
16/07:30am 18.1 13.2 8.4 53 5.1 ENE 24 30 13 16 1015.1 1012.8 0.0
16/07:00am 16.2 11.2 9.4 64 3.6 ENE 26 32 14 17 1014.9 1012.7 0.0
16/06:30am 15.1 10.2 9.9 71 2.8 ENE 26 33 14 18 1014.7 1012.5 0.0
16/06:00am 14.9 9.7 10.1 73 2.6 E 28 32 15 17 1014.6 1012.4 0.0
16/05:30am 14.7 10.0 10.5 76 2.3 E 26 35 14 19 1014.5 1012.3 0.0
16/05:00am 14.3 9.5 10.3 77 2.1 E 26 30 14 16 1014.4 1012.2 0.0
16/04:30am 14.3 9.9 10.5 78 2.0 E 24 30 13 16 1014.5 1012.3 0.0
16/04:00am 14.3 9.9 10.5 78 2.0 E 24 30 13 16 1014.5 1012.3 0.0
16/03:30am 14.5 9.8 10.7 78 2.1 E 26 28 14 15 1014.5 1012.3 0.0
16/03:00am 14.4 10.1 10.6 78 2.1 E 24 28 13 15 1014.7 1012.5 0.0
16/02:30am 13.7 9.4 10.9 83 1.5 ESE 24 30 13 16 1014.8 1012.6 0.0
16/02:00am 13.1 9.0 11.5 90 0.9 ESE 24 30 13 16 1015.2 1012.9 0.0
16/01:30am 12.5 8.2 11.9 96 0.3 ESE 26 30 14 16 1015.3 1013.0 0.0
16/01:00am 12.8 8.5 11.9 94 0.5 ESE 26 30 14 16 1015.5 1013.2 0.0
16/12:30am 12.6 8.3 12.1 97 0.3 ESE 26 30 14 16 1015.6 1013.3 0.0
16/12:00am 12.5 8.2 12.2 98 0.2 ESE 26 30 14 16 1015.6 1013.3 0.0
 
Date/Time
CDT
Temp
°C
App
Temp
°C
Dew
Point
°C
Rel
Hum
%
Delta-T
°C
Wind Press
QNH
hPa
Press
MSL
hPa
Rain since
9am
mm
Dir  Spd
km/h
Gust
km/h
Spd
kts
Gust
kts
15/11:30pm 12.9 8.6 12.1 95 0.4 ESE 26 32 14 17 1015.7 1013.4 0.0
15/11:00pm 13.4 9.1 12.0 91 0.8 ESE 26 32 14 17 1016.1 1013.9 0.0
15/10:30pm 14.0 10.0 11.9 87 1.2 ESE 24 32 13 17 1016.2 1014.0 0.0
15/10:00pm 14.9 10.5 11.7 81 1.8 ESE 26 32 14 17 1016.1 1013.9 0.0
15/09:30pm 15.6 11.2 11.6 77 2.2 SE 26 33 14 18 1016.3 1014.1 0.0
15/09:00pm 16.9 12.8 11.4 70 3.1 ESE 24 32 13 17 1016.3 1014.1 0.0
15/08:30pm 18.2 14.0 11.0 63 4.0 ESE 24 32 13 17 1016.5 1014.3 0.0
15/08:00pm 19.7 14.2 10.7 56 5.0 ESE 30 35 16 19 1016.3 1014.1 0.0
15/07:30pm 21.3 16.8 9.9 48 6.3 ESE 24 32 13 17 1016.3 1014.1 0.0
15/07:00pm 23.2 19.2 8.9 40 7.9 ESE 20 28 11 15 1016.3 1014.1 0.0
15/06:30pm 24.1 20.3 8.9 38 8.4 ESE 19 26 10 14 1016.3 1014.1 0.0
15/06:00pm 24.9 21.7 8.4 35 9.1 ESE 15 24 8 13 1016.5 1014.3 0.0
15/05:30pm 25.2 22.3 8.2 34 9.3 ESE 13 19 7 10 1016.6 1014.4 0.0
15/05:00pm 25.3 22.5 8.7 35 9.2 E 13 20 7 11 1016.7 1014.5 0.0
15/04:30pm 25.0 22.3 8.9 36 8.9 E 13 17 7 9 1017.2 1014.9 0.0
15/04:00pm 25.1 22.5 9.4 37 8.8 ENE 13 20 7 11 1017.5 1015.2 0.0
15/03:30pm 24.5 22.0 8.0 35 9.0 NE 11 20 6 11 1017.7 1015.4 0.0
15/03:00pm 25.3 23.1 9.2 36 9.0 E 11 17 6 9 1018.0 1015.8 0.0
15/02:30pm 24.0 21.5 8.4 37 8.5 ESE 11 17 6 9 1018.3 1016.1 0.0
15/02:00pm 23.1 20.2 9.8 43 7.4 ENE 15 20 8 11 1018.5 1016.3 0.0
15/01:30pm 22.5 20.2 10.3 46 6.8 NE 13 20 7 11 1018.8 1016.6 0.0
15/01:00pm 22.5 20.8 11.3 49 6.4 E 11 19 6 10 1019.0 1016.8 0.0
15/12:30pm 21.5 20.6 11.5 53 5.7 E 7 17 4 9 1019.2 1016.9 0.0

Other Formats:

Comma delimited format used in spreadsheet applications
http://www.bom.gov.au/fwo/IDS60801/IDS60801.94678.axf

JavaScript Object Notation format (JSON) in row-major order
http://www.bom.gov.au/fwo/IDS60801/IDS60801.94678.json